sensor_id;sensor_type;location;lat;lon;timestamp;P1;durP1;ratioP1;P2;durP2;ratioP2
20245;SDS011;10281;54.406;18.556;2022-07-09T00:01:46;5.80;;;2.23;;
20245;SDS011;10281;54.406;18.556;2022-07-09T00:04:13;4.70;;;1.90;;
20245;SDS011;10281;54.406;18.556;2022-07-09T00:06:40;6.33;;;2.53;;
20245;SDS011;10281;54.406;18.556;2022-07-09T00:09:06;5.87;;;2.10;;
20245;SDS011;10281;54.406;18.556;2022-07-09T00:11:33;3.80;;;2.13;;
20245;SDS011;10281;54.406;18.556;2022-07-09T00:13:59;4.03;;;2.10;;
20245;SDS011;10281;54.406;18.556;2022-07-09T00:16:26;4.30;;;1.73;;
20245;SDS011;10281;54.406;18.556;2022-07-09T00:18:53;5.77;;;2.37;;
20245;SDS011;10281;54.406;18.556;2022-07-09T00:21:19;3.10;;;1.90;;
20245;SDS011;10281;54.406;18.556;2022-07-09T00:23:46;4.30;;;2.00;;
20245;SDS011;10281;54.406;18.556;2022-07-09T00:26:13;4.37;;;1.97;;
20245;SDS011;10281;54.406;18.556;2022-07-09T00:28:39;2.47;;;1.93;;
20245;SDS011;10281;54.406;18.556;2022-07-09T00:31:07;2.67;;;1.60;;
20245;SDS011;10281;54.406;18.556;2022-07-09T00:33:33;3.07;;;1.93;;
20245;SDS011;10281;54.406;18.556;2022-07-09T00:36:00;5.10;;;2.10;;
20245;SDS011;10281;54.406;18.556;2022-07-09T00:38:28;2.83;;;2.00;;
20245;SDS011;10281;54.406;18.556;2022-07-09T00:40:54;6.57;;;1.93;;
20245;SDS011;10281;54.406;18.556;2022-07-09T00:43:21;5.13;;;2.27;;
20245;SDS011;10281;54.406;18.556;2022-07-09T00:45:49;4.23;;;1.83;;
20245;SDS011;10281;54.406;18.556;2022-07-09T00:48:16;3.60;;;1.97;;
20245;SDS011;10281;54.406;18.556;2022-07-09T00:50:45;3.17;;;2.00;;
20245;SDS011;10281;54.406;18.556;2022-07-09T00:53:12;4.10;;;2.10;;
20245;SDS011;10281;54.406;18.556;2022-07-09T00:55:41;4.47;;;2.20;;
20245;SDS011;10281;54.406;18.556;2022-07-09T00:58:10;3.53;;;2.30;;
20245;SDS011;10281;54.406;18.556;2022-07-09T01:00:38;6.10;;;2.20;;
20245;SDS011;10281;54.406;18.556;2022-07-09T01:03:04;3.27;;;2.20;;
20245;SDS011;10281;54.406;18.556;2022-07-09T01:05:31;4.90;;;2.10;;
20245;SDS011;10281;54.406;18.556;2022-07-09T01:08:00;3.30;;;2.10;;
20245;SDS011;10281;54.406;18.556;2022-07-09T01:10:26;4.27;;;2.10;;
20245;SDS011;10281;54.406;18.556;2022-07-09T01:12:53;4.67;;;1.90;;
20245;SDS011;10281;54.406;18.556;2022-07-09T01:15:20;4.03;;;2.10;;
20245;SDS011;10281;54.406;18.556;2022-07-09T01:17:47;3.70;;;2.27;;
20245;SDS011;10281;54.406;18.556;2022-07-09T01:20:18;6.80;;;2.03;;
20245;SDS011;10281;54.406;18.556;2022-07-09T01:22:46;4.40;;;2.30;;
20245;SDS011;10281;54.406;18.556;2022-07-09T01:25:13;4.47;;;2.00;;
20245;SDS011;10281;54.406;18.556;2022-07-09T01:27:43;2.77;;;1.80;;
20245;SDS011;10281;54.406;18.556;2022-07-09T01:30:11;3.33;;;2.10;;
20245;SDS011;10281;54.406;18.556;2022-07-09T01:32:39;6.23;;;2.30;;
20245;SDS011;10281;54.406;18.556;2022-07-09T01:35:06;3.90;;;1.97;;
20245;SDS011;10281;54.406;18.556;2022-07-09T01:37:33;3.53;;;1.93;;
20245;SDS011;10281;54.406;18.556;2022-07-09T01:40:00;3.20;;;2.20;;
20245;SDS011;10281;54.406;18.556;2022-07-09T01:42:27;5.07;;;2.13;;
20245;SDS011;10281;54.406;18.556;2022-07-09T01:44:53;4.57;;;2.20;;
20245;SDS011;10281;54.406;18.556;2022-07-09T01:47:20;4.67;;;2.40;;
20245;SDS011;10281;54.406;18.556;2022-07-09T01:49:46;6.07;;;2.47;;
20245;SDS011;10281;54.406;18.556;2022-07-09T01:52:13;3.87;;;2.17;;
20245;SDS011;10281;54.406;18.556;2022-07-09T01:54:40;5.73;;;2.00;;
20245;SDS011;10281;54.406;18.556;2022-07-09T01:57:07;3.57;;;1.90;;
20245;SDS011;10281;54.406;18.556;2022-07-09T01:59:33;3.23;;;2.00;;
20245;SDS011;10281;54.406;18.556;2022-07-09T02:02:00;3.57;;;2.00;;
20245;SDS011;10281;54.406;18.556;2022-07-09T02:04:27;3.17;;;2.00;;
20245;SDS011;10281;54.406;18.556;2022-07-09T02:06:53;4.27;;;2.10;;
20245;SDS011;10281;54.406;18.556;2022-07-09T02:09:21;4.37;;;2.17;;
20245;SDS011;10281;54.406;18.556;2022-07-09T02:11:48;2.40;;;1.80;;
20245;SDS011;10281;54.406;18.556;2022-07-09T02:14:15;3.60;;;2.10;;
20245;SDS011;10281;54.406;18.556;2022-07-09T02:16:42;3.23;;;2.20;;
20245;SDS011;10281;54.406;18.556;2022-07-09T02:19:09;4.60;;;1.97;;
20245;SDS011;10281;54.406;18.556;2022-07-09T02:21:36;4.90;;;2.23;;
20245;SDS011;10281;54.406;18.556;2022-07-09T02:24:02;6.07;;;2.33;;
20245;SDS011;10281;54.406;18.556;2022-07-09T02:26:29;3.70;;;1.73;;
20245;SDS011;10281;54.406;18.556;2022-07-09T02:28:56;2.73;;;2.00;;
20245;SDS011;10281;54.406;18.556;2022-07-09T02:31:22;5.40;;;2.87;;
20245;SDS011;10281;54.406;18.556;2022-07-09T02:33:49;3.40;;;1.97;;
20245;SDS011;10281;54.406;18.556;2022-07-09T02:36:16;3.47;;;1.90;;
20245;SDS011;10281;54.406;18.556;2022-07-09T02:38:43;2.13;;;1.80;;
20245;SDS011;10281;54.406;18.556;2022-07-09T02:41:09;6.10;;;2.00;;
20245;SDS011;10281;54.406;18.556;2022-07-09T02:43:36;3.50;;;1.97;;
20245;SDS011;10281;54.406;18.556;2022-07-09T02:46:03;2.20;;;1.70;;
20245;SDS011;10281;54.406;18.556;2022-07-09T02:48:30;3.73;;;1.87;;
20245;SDS011;10281;54.406;18.556;2022-07-09T02:50:57;1.67;;;1.57;;
20245;SDS011;10281;54.406;18.556;2022-07-09T02:53:24;3.23;;;1.73;;
20245;SDS011;10281;54.406;18.556;2022-07-09T02:55:50;3.87;;;1.90;;
20245;SDS011;10281;54.406;18.556;2022-07-09T02:58:17;3.53;;;1.83;;
20245;SDS011;10281;54.406;18.556;2022-07-09T03:00:43;5.07;;;1.87;;
20245;SDS011;10281;54.406;18.556;2022-07-09T03:03:10;4.30;;;2.07;;
20245;SDS011;10281;54.406;18.556;2022-07-09T03:05:37;3.67;;;2.20;;
20245;SDS011;10281;54.406;18.556;2022-07-09T03:08:03;4.30;;;2.13;;
20245;SDS011;10281;54.406;18.556;2022-07-09T03:10:31;3.90;;;2.03;;
20245;SDS011;10281;54.406;18.556;2022-07-09T03:12:57;4.57;;;2.10;;
20245;SDS011;10281;54.406;18.556;2022-07-09T03:15:24;3.40;;;1.93;;
20245;SDS011;10281;54.406;18.556;2022-07-09T03:17:51;4.00;;;2.30;;
20245;SDS011;10281;54.406;18.556;2022-07-09T03:20:17;3.73;;;2.07;;
20245;SDS011;10281;54.406;18.556;2022-07-09T03:22:44;1.93;;;1.73;;
20245;SDS011;10281;54.406;18.556;2022-07-09T03:25:10;3.73;;;2.27;;
20245;SDS011;10281;54.406;18.556;2022-07-09T03:27:37;3.73;;;1.90;;
20245;SDS011;10281;54.406;18.556;2022-07-09T03:30:04;3.73;;;2.13;;
20245;SDS011;10281;54.406;18.556;2022-07-09T03:32:31;3.17;;;2.07;;
20245;SDS011;10281;54.406;18.556;2022-07-09T03:34:58;4.10;;;1.97;;
20245;SDS011;10281;54.406;18.556;2022-07-09T03:37:24;5.60;;;2.00;;
20245;SDS011;10281;54.406;18.556;2022-07-09T03:39:51;5.07;;;1.90;;
20245;SDS011;10281;54.406;18.556;2022-07-09T03:42:18;2.87;;;2.10;;
20245;SDS011;10281;54.406;18.556;2022-07-09T03:44:45;2.37;;;1.60;;
20245;SDS011;10281;54.406;18.556;2022-07-09T03:47:11;3.30;;;1.97;;
20245;SDS011;10281;54.406;18.556;2022-07-09T03:49:38;4.33;;;2.00;;
20245;SDS011;10281;54.406;18.556;2022-07-09T03:52:05;2.63;;;2.03;;
20245;SDS011;10281;54.406;18.556;2022-07-09T03:54:31;3.43;;;1.73;;
20245;SDS011;10281;54.406;18.556;2022-07-09T03:56:58;1.70;;;1.60;;
20245;SDS011;10281;54.406;18.556;2022-07-09T03:59:25;4.47;;;1.60;;
20245;SDS011;10281;54.406;18.556;2022-07-09T04:01:51;3.97;;;2.00;;
20245;SDS011;10281;54.406;18.556;2022-07-09T04:04:19;3.93;;;1.60;;
20245;SDS011;10281;54.406;18.556;2022-07-09T04:06:45;3.13;;;1.67;;
20245;SDS011;10281;54.406;18.556;2022-07-09T04:09:12;5.30;;;2.00;;
20245;SDS011;10281;54.406;18.556;2022-07-09T04:11:38;3.10;;;1.60;;
20245;SDS011;10281;54.406;18.556;2022-07-09T04:14:05;4.13;;;1.93;;
20245;SDS011;10281;54.406;18.556;2022-07-09T04:16:32;2.60;;;1.43;;
20245;SDS011;10281;54.406;18.556;2022-07-09T04:18:58;3.77;;;1.70;;
20245;SDS011;10281;54.406;18.556;2022-07-09T04:21:25;3.07;;;1.50;;
20245;SDS011;10281;54.406;18.556;2022-07-09T04:23:51;4.37;;;1.70;;
20245;SDS011;10281;54.406;18.556;2022-07-09T04:26:18;4.30;;;1.50;;
20245;SDS011;10281;54.406;18.556;2022-07-09T04:28:45;3.37;;;1.73;;
20245;SDS011;10281;54.406;18.556;2022-07-09T04:31:12;3.90;;;1.50;;
20245;SDS011;10281;54.406;18.556;2022-07-09T04:33:42;5.73;;;1.97;;
20245;SDS011;10281;54.406;18.556;2022-07-09T04:36:10;2.40;;;1.60;;
20245;SDS011;10281;54.406;18.556;2022-07-09T04:38:37;4.70;;;1.67;;
20245;SDS011;10281;54.406;18.556;2022-07-09T04:41:03;3.77;;;1.73;;
20245;SDS011;10281;54.406;18.556;2022-07-09T04:43:31;3.50;;;1.43;;
20245;SDS011;10281;54.406;18.556;2022-07-09T04:45:57;3.67;;;1.67;;
20245;SDS011;10281;54.406;18.556;2022-07-09T04:48:25;5.07;;;1.53;;
20245;SDS011;10281;54.406;18.556;2022-07-09T04:50:52;4.77;;;1.60;;
20245;SDS011;10281;54.406;18.556;2022-07-09T04:53:18;5.43;;;1.80;;
20245;SDS011;10281;54.406;18.556;2022-07-09T04:55:45;4.03;;;1.70;;
20245;SDS011;10281;54.406;18.556;2022-07-09T04:58:11;2.30;;;1.70;;
20245;SDS011;10281;54.406;18.556;2022-07-09T05:00:38;3.73;;;1.60;;
20245;SDS011;10281;54.406;18.556;2022-07-09T05:03:05;4.20;;;1.60;;
20245;SDS011;10281;54.406;18.556;2022-07-09T05:05:31;6.67;;;1.80;;
20245;SDS011;10281;54.406;18.556;2022-07-09T05:07:58;3.63;;;1.80;;
20245;SDS011;10281;54.406;18.556;2022-07-09T05:10:25;3.90;;;1.60;;
20245;SDS011;10281;54.406;18.556;2022-07-09T05:12:52;6.00;;;2.07;;
20245;SDS011;10281;54.406;18.556;2022-07-09T05:15:18;2.77;;;1.53;;
20245;SDS011;10281;54.406;18.556;2022-07-09T05:17:45;7.93;;;1.80;;
20245;SDS011;10281;54.406;18.556;2022-07-09T05:20:12;7.07;;;2.13;;
20245;SDS011;10281;54.406;18.556;2022-07-09T05:22:38;4.97;;;1.77;;
20245;SDS011;10281;54.406;18.556;2022-07-09T05:25:05;2.70;;;1.40;;
20245;SDS011;10281;54.406;18.556;2022-07-09T05:27:39;4.10;;;1.87;;
20245;SDS011;10281;54.406;18.556;2022-07-09T05:30:08;5.10;;;1.73;;
20245;SDS011;10281;54.406;18.556;2022-07-09T05:32:35;6.83;;;2.30;;
20245;SDS011;10281;54.406;18.556;2022-07-09T05:35:01;6.70;;;1.83;;
20245;SDS011;10281;54.406;18.556;2022-07-09T05:37:28;6.10;;;1.87;;
20245;SDS011;10281;54.406;18.556;2022-07-09T05:39:56;3.67;;;1.93;;
20245;SDS011;10281;54.406;18.556;2022-07-09T05:42:23;4.80;;;1.80;;
20245;SDS011;10281;54.406;18.556;2022-07-09T05:44:50;4.13;;;1.90;;
20245;SDS011;10281;54.406;18.556;2022-07-09T05:47:16;6.13;;;2.00;;
20245;SDS011;10281;54.406;18.556;2022-07-09T05:49:43;6.90;;;2.20;;
20245;SDS011;10281;54.406;18.556;2022-07-09T05:52:10;5.20;;;1.90;;
20245;SDS011;10281;54.406;18.556;2022-07-09T05:54:36;6.90;;;2.17;;
20245;SDS011;10281;54.406;18.556;2022-07-09T05:57:03;6.77;;;2.40;;
20245;SDS011;10281;54.406;18.556;2022-07-09T05:59:30;7.67;;;2.43;;
20245;SDS011;10281;54.406;18.556;2022-07-09T06:01:57;7.43;;;2.30;;
20245;SDS011;10281;54.406;18.556;2022-07-09T06:04:23;6.70;;;2.47;;
20245;SDS011;10281;54.406;18.556;2022-07-09T06:06:51;6.97;;;2.20;;
20245;SDS011;10281;54.406;18.556;2022-07-09T06:09:18;5.77;;;2.13;;
20245;SDS011;10281;54.406;18.556;2022-07-09T06:11:45;5.03;;;2.33;;
20245;SDS011;10281;54.406;18.556;2022-07-09T06:14:11;5.03;;;2.40;;
20245;SDS011;10281;54.406;18.556;2022-07-09T06:16:38;6.27;;;3.07;;
20245;SDS011;10281;54.406;18.556;2022-07-09T06:19:05;5.70;;;2.17;;
20245;SDS011;10281;54.406;18.556;2022-07-09T06:21:31;4.73;;;2.17;;
20245;SDS011;10281;54.406;18.556;2022-07-09T06:23:58;4.93;;;2.20;;
20245;SDS011;10281;54.406;18.556;2022-07-09T06:26:24;6.13;;;2.30;;
20245;SDS011;10281;54.406;18.556;2022-07-09T06:28:51;5.47;;;2.17;;
20245;SDS011;10281;54.406;18.556;2022-07-09T06:31:18;6.73;;;2.73;;
20245;SDS011;10281;54.406;18.556;2022-07-09T06:33:44;5.93;;;2.50;;
20245;SDS011;10281;54.406;18.556;2022-07-09T06:36:11;7.90;;;2.87;;
20245;SDS011;10281;54.406;18.556;2022-07-09T06:38:38;5.27;;;2.13;;
20245;SDS011;10281;54.406;18.556;2022-07-09T06:41:06;6.33;;;2.40;;
20245;SDS011;10281;54.406;18.556;2022-07-09T06:43:33;6.80;;;2.40;;
20245;SDS011;10281;54.406;18.556;2022-07-09T06:45:59;6.60;;;2.00;;
20245;SDS011;10281;54.406;18.556;2022-07-09T06:48:26;4.83;;;2.53;;
20245;SDS011;10281;54.406;18.556;2022-07-09T06:50:53;7.80;;;2.37;;
20245;SDS011;10281;54.406;18.556;2022-07-09T06:53:19;5.27;;;2.20;;
20245;SDS011;10281;54.406;18.556;2022-07-09T06:55:46;7.60;;;2.30;;
20245;SDS011;10281;54.406;18.556;2022-07-09T06:58:12;5.93;;;2.30;;
20245;SDS011;10281;54.406;18.556;2022-07-09T07:00:39;4.13;;;2.07;;
20245;SDS011;10281;54.406;18.556;2022-07-09T07:03:06;5.73;;;2.30;;
20245;SDS011;10281;54.406;18.556;2022-07-09T07:05:32;5.43;;;2.40;;
20245;SDS011;10281;54.406;18.556;2022-07-09T07:07:59;5.77;;;2.27;;
20245;SDS011;10281;54.406;18.556;2022-07-09T07:10:25;9.27;;;2.63;;
20245;SDS011;10281;54.406;18.556;2022-07-09T07:12:53;4.83;;;2.20;;
20245;SDS011;10281;54.406;18.556;2022-07-09T07:15:21;5.90;;;2.00;;
20245;SDS011;10281;54.406;18.556;2022-07-09T07:17:48;6.87;;;2.47;;
20245;SDS011;10281;54.406;18.556;2022-07-09T07:20:14;7.73;;;2.33;;
20245;SDS011;10281;54.406;18.556;2022-07-09T07:22:43;7.73;;;2.83;;
20245;SDS011;10281;54.406;18.556;2022-07-09T07:25:10;4.67;;;2.27;;
20245;SDS011;10281;54.406;18.556;2022-07-09T07:27:37;4.53;;;2.37;;
20245;SDS011;10281;54.406;18.556;2022-07-09T07:30:04;5.60;;;2.20;;
20245;SDS011;10281;54.406;18.556;2022-07-09T07:32:31;5.30;;;2.67;;
20245;SDS011;10281;54.406;18.556;2022-07-09T07:34:58;6.77;;;2.20;;
20245;SDS011;10281;54.406;18.556;2022-07-09T07:37:24;6.87;;;2.17;;
20245;SDS011;10281;54.406;18.556;2022-07-09T07:39:51;7.70;;;2.67;;
20245;SDS011;10281;54.406;18.556;2022-07-09T07:42:18;7.03;;;2.50;;
20245;SDS011;10281;54.406;18.556;2022-07-09T07:44:44;10.23;;;2.43;;
20245;SDS011;10281;54.406;18.556;2022-07-09T07:47:11;5.47;;;2.10;;
20245;SDS011;10281;54.406;18.556;2022-07-09T07:49:38;6.70;;;2.77;;
20245;SDS011;10281;54.406;18.556;2022-07-09T07:52:04;5.67;;;2.27;;
20245;SDS011;10281;54.406;18.556;2022-07-09T07:54:31;5.43;;;2.00;;
20245;SDS011;10281;54.406;18.556;2022-07-09T07:56:58;5.57;;;2.40;;
20245;SDS011;10281;54.406;18.556;2022-07-09T07:59:25;7.07;;;2.50;;
20245;SDS011;10281;54.406;18.556;2022-07-09T08:01:52;3.50;;;1.60;;
20245;SDS011;10281;54.406;18.556;2022-07-09T08:04:19;5.10;;;2.03;;
20245;SDS011;10281;54.406;18.556;2022-07-09T08:06:45;5.27;;;2.17;;
20245;SDS011;10281;54.406;18.556;2022-07-09T08:09:12;6.47;;;2.00;;
20245;SDS011;10281;54.406;18.556;2022-07-09T08:11:38;4.57;;;2.10;;
20245;SDS011;10281;54.406;18.556;2022-07-09T08:14:05;7.03;;;2.40;;
20245;SDS011;10281;54.406;18.556;2022-07-09T08:16:32;5.47;;;2.00;;
20245;SDS011;10281;54.406;18.556;2022-07-09T08:18:59;6.17;;;2.20;;
20245;SDS011;10281;54.406;18.556;2022-07-09T08:21:26;5.33;;;2.07;;
20245;SDS011;10281;54.406;18.556;2022-07-09T08:23:53;5.70;;;2.47;;
20245;SDS011;10281;54.406;18.556;2022-07-09T08:26:20;6.27;;;2.10;;
20245;SDS011;10281;54.406;18.556;2022-07-09T08:28:48;5.03;;;2.33;;
20245;SDS011;10281;54.406;18.556;2022-07-09T08:31:15;6.53;;;2.23;;
20245;SDS011;10281;54.406;18.556;2022-07-09T08:33:43;3.87;;;1.60;;
20245;SDS011;10281;54.406;18.556;2022-07-09T08:36:10;4.37;;;2.17;;
20245;SDS011;10281;54.406;18.556;2022-07-09T08:38:37;6.30;;;2.20;;
20245;SDS011;10281;54.406;18.556;2022-07-09T08:41:03;6.63;;;2.43;;
20245;SDS011;10281;54.406;18.556;2022-07-09T08:43:33;6.53;;;1.87;;
20245;SDS011;10281;54.406;18.556;2022-07-09T08:46:01;5.50;;;2.00;;
20245;SDS011;10281;54.406;18.556;2022-07-09T08:48:28;5.13;;;1.87;;
20245;SDS011;10281;54.406;18.556;2022-07-09T08:50:57;7.00;;;2.07;;
20245;SDS011;10281;54.406;18.556;2022-07-09T08:53:25;5.57;;;2.13;;
20245;SDS011;10281;54.406;18.556;2022-07-09T08:55:53;8.00;;;1.87;;
20245;SDS011;10281;54.406;18.556;2022-07-09T08:58:20;3.47;;;1.80;;
20245;SDS011;10281;54.406;18.556;2022-07-09T09:00:47;7.90;;;2.27;;
20245;SDS011;10281;54.406;18.556;2022-07-09T09:03:17;4.33;;;2.10;;
20245;SDS011;10281;54.406;18.556;2022-07-09T09:05:45;3.03;;;1.70;;
20245;SDS011;10281;54.406;18.556;2022-07-09T09:08:17;5.07;;;1.93;;
20245;SDS011;10281;54.406;18.556;2022-07-09T09:10:49;5.53;;;1.80;;
20245;SDS011;10281;54.406;18.556;2022-07-09T09:13:16;3.60;;;1.80;;
20245;SDS011;10281;54.406;18.556;2022-07-09T09:15:43;5.17;;;1.87;;
20245;SDS011;10281;54.406;18.556;2022-07-09T09:18:10;4.47;;;1.70;;
20245;SDS011;10281;54.406;18.556;2022-07-09T09:20:38;2.73;;;1.30;;
20245;SDS011;10281;54.406;18.556;2022-07-09T09:23:06;5.80;;;1.60;;
20245;SDS011;10281;54.406;18.556;2022-07-09T09:25:36;5.70;;;1.60;;
20245;SDS011;10281;54.406;18.556;2022-07-09T09:28:03;5.57;;;1.60;;
20245;SDS011;10281;54.406;18.556;2022-07-09T09:30:30;4.90;;;1.60;;
20245;SDS011;10281;54.406;18.556;2022-07-09T09:33:01;3.63;;;1.70;;
20245;SDS011;10281;54.406;18.556;2022-07-09T09:35:32;3.50;;;1.83;;
20245;SDS011;10281;54.406;18.556;2022-07-09T09:38:00;3.67;;;1.50;;
20245;SDS011;10281;54.406;18.556;2022-07-09T09:40:27;4.40;;;1.50;;
20245;SDS011;10281;54.406;18.556;2022-07-09T09:42:54;3.47;;;1.60;;
20245;SDS011;10281;54.406;18.556;2022-07-09T09:45:24;4.33;;;1.80;;
20245;SDS011;10281;54.406;18.556;2022-07-09T09:47:52;5.37;;;1.70;;
20245;SDS011;10281;54.406;18.556;2022-07-09T09:50:21;4.13;;;1.80;;
20245;SDS011;10281;54.406;18.556;2022-07-09T09:52:49;3.27;;;1.70;;
20245;SDS011;10281;54.406;18.556;2022-07-09T09:55:19;3.47;;;1.77;;
20245;SDS011;10281;54.406;18.556;2022-07-09T09:57:48;2.73;;;1.60;;
20245;SDS011;10281;54.406;18.556;2022-07-09T10:00:15;4.43;;;1.63;;
20245;SDS011;10281;54.406;18.556;2022-07-09T10:02:43;4.37;;;1.80;;
20245;SDS011;10281;54.406;18.556;2022-07-09T10:05:12;5.70;;;1.97;;
20245;SDS011;10281;54.406;18.556;2022-07-09T10:07:40;4.33;;;1.80;;
20245;SDS011;10281;54.406;18.556;2022-07-09T10:10:07;3.93;;;1.70;;
20245;SDS011;10281;54.406;18.556;2022-07-09T10:12:36;4.97;;;1.80;;
20245;SDS011;10281;54.406;18.556;2022-07-09T10:15:15;3.80;;;1.83;;
20245;SDS011;10281;54.406;18.556;2022-07-09T10:17:42;9.03;;;2.13;;
20245;SDS011;10281;54.406;18.556;2022-07-09T10:20:09;3.77;;;1.60;;
20245;SDS011;10281;54.406;18.556;2022-07-09T10:22:37;4.07;;;1.53;;
20245;SDS011;10281;54.406;18.556;2022-07-09T10:25:07;3.43;;;1.33;;
20245;SDS011;10281;54.406;18.556;2022-07-09T10:27:41;3.00;;;1.47;;
20245;SDS011;10281;54.406;18.556;2022-07-09T10:30:11;2.17;;;1.30;;
20245;SDS011;10281;54.406;18.556;2022-07-09T10:33:01;1.97;;;1.10;;
20245;SDS011;10281;54.406;18.556;2022-07-09T10:35:29;3.40;;;1.30;;
20245;SDS011;10281;54.406;18.556;2022-07-09T10:37:57;2.80;;;1.37;;
20245;SDS011;10281;54.406;18.556;2022-07-09T10:40:23;2.57;;;1.30;;
20245;SDS011;10281;54.406;18.556;2022-07-09T10:42:59;3.47;;;1.50;;
20245;SDS011;10281;54.406;18.556;2022-07-09T10:45:28;3.57;;;1.60;;
20245;SDS011;10281;54.406;18.556;2022-07-09T10:47:58;3.50;;;1.30;;
20245;SDS011;10281;54.406;18.556;2022-07-09T10:50:26;4.60;;;1.40;;
20245;SDS011;10281;54.406;18.556;2022-07-09T10:52:55;2.43;;;1.20;;
20245;SDS011;10281;54.406;18.556;2022-07-09T10:55:23;4.17;;;2.13;;
20245;SDS011;10281;54.406;18.556;2022-07-09T10:57:51;1.97;;;1.57;;
20245;SDS011;10281;54.406;18.556;2022-07-09T11:00:21;4.33;;;2.00;;
20245;SDS011;10281;54.406;18.556;2022-07-09T11:05:25;3.27;;;1.40;;
20245;SDS011;10281;54.406;18.556;2022-07-09T11:07:58;1.23;;;1.10;;
20245;SDS011;10281;54.406;18.556;2022-07-09T11:10:35;3.07;;;1.13;;
20245;SDS011;10281;54.406;18.556;2022-07-09T11:13:04;1.90;;;1.20;;
20245;SDS011;10281;54.406;18.556;2022-07-09T11:15:33;2.70;;;1.20;;
20245;SDS011;10281;54.406;18.556;2022-07-09T11:18:08;2.07;;;1.33;;
20245;SDS011;10281;54.406;18.556;2022-07-09T11:20:39;4.30;;;1.40;;
20245;SDS011;10281;54.406;18.556;2022-07-09T11:23:09;4.10;;;1.23;;
20245;SDS011;10281;54.406;18.556;2022-07-09T11:25:38;3.47;;;1.20;;
20245;SDS011;10281;54.406;18.556;2022-07-09T11:28:05;2.37;;;1.07;;
20245;SDS011;10281;54.406;18.556;2022-07-09T11:30:32;1.80;;;1.30;;
20245;SDS011;10281;54.406;18.556;2022-07-09T11:32:59;2.17;;;1.07;;
20245;SDS011;10281;54.406;18.556;2022-07-09T11:35:27;6.43;;;1.70;;
20245;SDS011;10281;54.406;18.556;2022-07-09T11:37:56;2.37;;;1.30;;
20245;SDS011;10281;54.406;18.556;2022-07-09T11:40:25;1.70;;;1.10;;
20245;SDS011;10281;54.406;18.556;2022-07-09T11:42:52;3.00;;;1.30;;
20245;SDS011;10281;54.406;18.556;2022-07-09T11:45:20;2.40;;;1.57;;
20245;SDS011;10281;54.406;18.556;2022-07-09T11:47:49;2.17;;;1.27;;
20245;SDS011;10281;54.406;18.556;2022-07-09T11:50:19;2.33;;;1.53;;
20245;SDS011;10281;54.406;18.556;2022-07-09T11:52:48;2.23;;;1.50;;
20245;SDS011;10281;54.406;18.556;2022-07-09T11:55:16;2.37;;;1.20;;
20245;SDS011;10281;54.406;18.556;2022-07-09T11:57:51;2.17;;;1.40;;
20245;SDS011;10281;54.406;18.556;2022-07-09T12:00:23;3.73;;;1.80;;
20245;SDS011;10281;54.406;18.556;2022-07-09T12:02:52;2.17;;;1.23;;
20245;SDS011;10281;54.406;18.556;2022-07-09T12:05:25;2.80;;;1.40;;
20245;SDS011;10281;54.406;18.556;2022-07-09T12:07:56;1.57;;;1.07;;
20245;SDS011;10281;54.406;18.556;2022-07-09T12:10:25;1.70;;;1.33;;
20245;SDS011;10281;54.406;18.556;2022-07-09T12:12:56;2.70;;;1.30;;
20245;SDS011;10281;54.406;18.556;2022-07-09T12:15:24;2.53;;;1.00;;
20245;SDS011;10281;54.406;18.556;2022-07-09T12:17:52;2.40;;;1.27;;
20245;SDS011;10281;54.406;18.556;2022-07-09T12:20:20;2.33;;;1.20;;
20245;SDS011;10281;54.406;18.556;2022-07-09T12:22:48;3.87;;;1.17;;
20245;SDS011;10281;54.406;18.556;2022-07-09T12:25:15;1.60;;;1.10;;
20245;SDS011;10281;54.406;18.556;2022-07-09T12:27:42;2.47;;;1.20;;
20245;SDS011;10281;54.406;18.556;2022-07-09T12:30:09;3.63;;;1.30;;
20245;SDS011;10281;54.406;18.556;2022-07-09T12:32:37;1.70;;;1.00;;
20245;SDS011;10281;54.406;18.556;2022-07-09T12:35:04;2.03;;;1.10;;
20245;SDS011;10281;54.406;18.556;2022-07-09T12:37:32;3.83;;;1.33;;
20245;SDS011;10281;54.406;18.556;2022-07-09T12:40:00;1.37;;;1.10;;
20245;SDS011;10281;54.406;18.556;2022-07-09T12:42:27;7.10;;;1.03;;
20245;SDS011;10281;54.406;18.556;2022-07-09T12:44:53;1.70;;;1.37;;
20245;SDS011;10281;54.406;18.556;2022-07-09T12:47:20;1.87;;;1.00;;
20245;SDS011;10281;54.406;18.556;2022-07-09T12:49:47;2.90;;;1.50;;
20245;SDS011;10281;54.406;18.556;2022-07-09T12:52:13;2.03;;;1.20;;
20245;SDS011;10281;54.406;18.556;2022-07-09T12:54:40;1.07;;;0.90;;
20245;SDS011;10281;54.406;18.556;2022-07-09T12:57:07;3.87;;;1.30;;
20245;SDS011;10281;54.406;18.556;2022-07-09T12:59:33;1.43;;;1.00;;
20245;SDS011;10281;54.406;18.556;2022-07-09T13:02:00;1.30;;;0.90;;
20245;SDS011;10281;54.406;18.556;2022-07-09T13:04:27;1.23;;;1.00;;
20245;SDS011;10281;54.406;18.556;2022-07-09T13:06:54;1.77;;;1.20;;
20245;SDS011;10281;54.406;18.556;2022-07-09T13:09:20;3.13;;;1.30;;
20245;SDS011;10281;54.406;18.556;2022-07-09T13:11:47;1.83;;;1.23;;
20245;SDS011;10281;54.406;18.556;2022-07-09T13:14:15;1.97;;;1.40;;
20245;SDS011;10281;54.406;18.556;2022-07-09T13:16:41;2.33;;;1.13;;
20245;SDS011;10281;54.406;18.556;2022-07-09T13:19:08;1.90;;;1.30;;
20245;SDS011;10281;54.406;18.556;2022-07-09T13:21:35;2.77;;;1.10;;
20245;SDS011;10281;54.406;18.556;2022-07-09T13:24:01;2.13;;;1.10;;
20245;SDS011;10281;54.406;18.556;2022-07-09T13:26:28;1.87;;;1.20;;
20245;SDS011;10281;54.406;18.556;2022-07-09T13:28:55;2.33;;;1.13;;
20245;SDS011;10281;54.406;18.556;2022-07-09T13:31:22;2.93;;;1.30;;
20245;SDS011;10281;54.406;18.556;2022-07-09T13:33:49;3.90;;;1.10;;
20245;SDS011;10281;54.406;18.556;2022-07-09T13:36:15;2.73;;;1.00;;
20245;SDS011;10281;54.406;18.556;2022-07-09T13:38:43;2.80;;;1.00;;
20245;SDS011;10281;54.406;18.556;2022-07-09T13:41:09;2.93;;;1.00;;
20245;SDS011;10281;54.406;18.556;2022-07-09T13:43:36;1.77;;;1.20;;
20245;SDS011;10281;54.406;18.556;2022-07-09T13:46:03;1.70;;;1.20;;
20245;SDS011;10281;54.406;18.556;2022-07-09T13:48:32;1.27;;;0.90;;
20245;SDS011;10281;54.406;18.556;2022-07-09T13:50:58;1.33;;;0.90;;
20245;SDS011;10281;54.406;18.556;2022-07-09T13:53:25;1.60;;;1.20;;
20245;SDS011;10281;54.406;18.556;2022-07-09T13:55:54;1.80;;;0.90;;
20245;SDS011;10281;54.406;18.556;2022-07-09T13:58:20;3.70;;;1.00;;
20245;SDS011;10281;54.406;18.556;2022-07-09T14:00:47;2.83;;;1.10;;
20245;SDS011;10281;54.406;18.556;2022-07-09T14:03:14;2.90;;;0.90;;
20245;SDS011;10281;54.406;18.556;2022-07-09T14:05:40;1.43;;;1.00;;
20245;SDS011;10281;54.406;18.556;2022-07-09T14:08:07;1.83;;;1.03;;
20245;SDS011;10281;54.406;18.556;2022-07-09T14:10:34;3.30;;;1.10;;
20245;SDS011;10281;54.406;18.556;2022-07-09T14:13:01;2.83;;;1.30;;
20245;SDS011;10281;54.406;18.556;2022-07-09T14:15:30;1.70;;;1.10;;
20245;SDS011;10281;54.406;18.556;2022-07-09T14:17:59;2.57;;;1.27;;
20245;SDS011;10281;54.406;18.556;2022-07-09T14:20:26;2.83;;;1.20;;
20245;SDS011;10281;54.406;18.556;2022-07-09T14:22:52;3.23;;;1.30;;
20245;SDS011;10281;54.406;18.556;2022-07-09T14:25:19;2.50;;;1.00;;
20245;SDS011;10281;54.406;18.556;2022-07-09T14:27:46;3.30;;;1.30;;
20245;SDS011;10281;54.406;18.556;2022-07-09T14:30:13;7.10;;;1.20;;
20245;SDS011;10281;54.406;18.556;2022-07-09T14:32:40;1.70;;;1.13;;
20245;SDS011;10281;54.406;18.556;2022-07-09T14:35:07;2.77;;;1.20;;
20245;SDS011;10281;54.406;18.556;2022-07-09T14:37:34;1.30;;;1.00;;